createdAt,value
2017-12-26T00:00:51.074Z,13.13
2017-12-26T00:03:19.420Z,16.40
2017-12-26T00:05:47.740Z,13.93
2017-12-26T00:08:16.839Z,15.50
2017-12-26T00:10:45.947Z,13.67
2017-12-26T00:13:15.047Z,15.80
2017-12-26T00:15:43.379Z,15.60
2017-12-26T00:18:11.728Z,15.60
2017-12-26T00:20:40.093Z,15.57
2017-12-26T00:23:08.414Z,16.43
2017-12-26T00:25:36.736Z,16.97
2017-12-26T00:28:05.100Z,15.50
2017-12-26T00:30:34.197Z,16.63
2017-12-26T00:33:02.520Z,13.53
2017-12-26T00:35:30.893Z,14.60
2017-12-26T00:37:59.259Z,15.27
2017-12-26T00:40:27.580Z,14.43
2017-12-26T00:42:55.930Z,16.33
2017-12-26T00:45:24.267Z,15.80
2017-12-26T00:47:52.597Z,17.30
2017-12-26T00:50:20.945Z,15.40
2017-12-26T00:52:49.268Z,16.20
2017-12-26T00:55:18.348Z,16.20
2017-12-26T00:57:46.708Z,16.53
2017-12-26T01:00:15.027Z,18.60
2017-12-26T01:02:43.375Z,18.00
2017-12-26T01:05:11.741Z,16.63
2017-12-26T01:07:40.067Z,15.10
2017-12-26T01:10:09.169Z,16.30
2017-12-26T01:12:37.531Z,18.77
2017-12-26T01:15:06.633Z,16.70
2017-12-26T01:17:35.002Z,14.77
2017-12-26T01:20:04.218Z,16.83
2017-12-26T01:22:32.560Z,15.83
2017-12-26T01:25:00.896Z,15.80
2017-12-26T01:27:29.231Z,15.07
2017-12-26T01:29:58.339Z,16.70
2017-12-26T01:32:27.477Z,15.03
2017-12-26T01:34:55.828Z,15.07
2017-12-26T01:37:24.157Z,13.70
2017-12-26T01:39:53.374Z,15.07
2017-12-26T01:42:22.480Z,15.00
2017-12-26T01:44:50.857Z,15.37
2017-12-26T01:47:19.977Z,14.03
2017-12-26T01:49:48.300Z,14.80
2017-12-26T01:52:16.656Z,15.00
2017-12-26T01:54:44.980Z,17.27
2017-12-26T01:57:14.062Z,15.03
2017-12-26T01:59:42.435Z,14.43
2017-12-26T02:02:11.563Z,14.40
2017-12-26T02:04:39.888Z,14.90
2017-12-26T02:07:08.243Z,15.07
2017-12-26T02:09:38.343Z,13.27
2017-12-26T02:12:06.679Z,14.13
2017-12-26T02:14:35.029Z,13.93
2017-12-26T02:17:03.400Z,14.63
2017-12-26T02:19:31.718Z,14.10
2017-12-26T02:22:00.041Z,13.20
2017-12-26T02:24:28.399Z,13.30
2017-12-26T02:26:56.744Z,12.57
2017-12-26T02:29:25.108Z,13.13
2017-12-26T02:31:53.462Z,13.70
2017-12-26T02:34:21.782Z,13.30
2017-12-26T02:36:50.885Z,12.13
2017-12-26T02:39:20.014Z,15.80
2017-12-26T02:41:48.340Z,14.17
2017-12-26T02:44:16.673Z,12.63
2017-12-26T02:46:45.009Z,14.63
2017-12-26T02:49:14.109Z,14.53
2017-12-26T02:51:43.200Z,15.17
2017-12-26T02:54:12.316Z,15.60
2017-12-26T02:56:41.420Z,15.23
2017-12-26T02:59:09.768Z,15.50
2017-12-26T03:01:38.867Z,13.43
2017-12-26T03:04:07.963Z,13.70
2017-12-26T03:06:37.116Z,14.60
2017-12-26T03:09:05.442Z,15.23
2017-12-26T03:11:34.535Z,13.67
2017-12-26T03:14:03.678Z,15.60
2017-12-26T03:16:32.011Z,13.47
2017-12-26T03:19:01.104Z,15.30
2017-12-26T03:21:30.238Z,13.50
2017-12-26T03:23:58.563Z,14.27
2017-12-26T03:26:26.896Z,14.20
2017-12-26T03:28:55.262Z,14.53
2017-12-26T03:31:23.604Z,14.93
2017-12-26T03:33:52.700Z,14.57
2017-12-26T03:36:21.836Z,13.40
2017-12-26T03:38:50.180Z,13.13
2017-12-26T03:41:18.532Z,13.40
2017-12-26T03:43:46.892Z,12.80
2017-12-26T03:46:15.224Z,15.03
2017-12-26T03:48:43.551Z,14.00
2017-12-26T03:51:11.878Z,14.10
2017-12-26T03:53:40.286Z,13.27
2017-12-26T03:56:08.628Z,13.80
2017-12-26T03:58:36.975Z,13.90
2017-12-26T04:01:05.335Z,13.00
2017-12-26T04:03:33.670Z,14.13
2017-12-26T04:06:02.030Z,14.30
2017-12-26T04:08:31.144Z,15.30
2017-12-26T04:10:59.476Z,15.73
2017-12-26T04:13:27.844Z,13.97
2017-12-26T04:15:56.996Z,12.83
2017-12-26T04:18:25.320Z,12.77
2017-12-26T04:20:53.652Z,13.33
2017-12-26T04:23:21.992Z,13.40
2017-12-26T04:25:50.308Z,13.20
2017-12-26T04:28:18.620Z,12.17
2017-12-26T04:30:46.992Z,12.67
2017-12-26T04:33:15.366Z,11.60
2017-12-26T04:35:43.681Z,12.50
2017-12-26T04:38:12.053Z,12.03
2017-12-26T04:40:40.397Z,11.73
2017-12-26T04:43:08.732Z,13.47
2017-12-26T04:45:37.836Z,13.13
2017-12-26T04:48:06.225Z,11.40
2017-12-26T04:50:34.545Z,13.07
2017-12-26T04:53:02.940Z,12.40
2017-12-26T04:55:31.304Z,12.07
2017-12-26T04:57:59.628Z,12.47
2017-12-26T05:00:27.987Z,13.10
2017-12-26T05:02:57.088Z,13.07
2017-12-26T05:05:26.391Z,12.40
2017-12-26T05:07:55.479Z,13.30
2017-12-26T05:10:24.561Z,13.30
2017-12-26T05:12:53.706Z,12.13
2017-12-26T05:15:22.044Z,13.73
2017-12-26T05:17:51.206Z,11.90
2017-12-26T05:20:19.553Z,11.67
2017-12-26T05:22:47.881Z,13.20
2017-12-26T05:25:16.232Z,11.87
2017-12-26T05:27:44.585Z,11.40
2017-12-26T05:30:12.917Z,13.87
2017-12-26T05:32:42.052Z,12.60
2017-12-26T05:35:10.412Z,13.30
2017-12-26T05:37:39.529Z,13.13
2017-12-26T05:42:42.436Z,13.53
2017-12-26T05:45:10.780Z,13.87
2017-12-26T05:47:39.920Z,13.83
2017-12-26T05:50:08.265Z,15.60
2017-12-26T05:52:36.633Z,15.40
2017-12-26T05:55:05.734Z,15.80
2017-12-26T05:57:34.837Z,15.73
2017-12-26T06:00:03.218Z,15.27
2017-12-26T06:02:31.537Z,14.70
2017-12-26T06:04:59.934Z,15.27
2017-12-26T06:07:28.269Z,15.53
2017-12-26T06:09:56.594Z,16.80
2017-12-26T06:12:24.937Z,17.17
2017-12-26T06:14:53.283Z,17.00
2017-12-26T06:17:21.601Z,17.30
2017-12-26T06:19:49.919Z,16.30
2017-12-26T06:22:19.048Z,15.80
2017-12-26T06:24:47.365Z,16.33
2017-12-26T06:27:15.692Z,16.77
2017-12-26T06:29:44.058Z,17.97
2017-12-26T06:32:12.401Z,18.67
2017-12-26T06:34:40.737Z,18.20
2017-12-26T06:37:09.091Z,16.23
2017-12-26T06:39:37.420Z,19.23
2017-12-26T06:42:05.779Z,18.47
2017-12-26T06:44:34.103Z,17.20
2017-12-26T06:47:03.191Z,19.60
2017-12-26T06:49:32.300Z,18.70
2017-12-26T06:52:01.393Z,18.50
2017-12-26T06:54:30.488Z,19.93
2017-12-26T06:56:59.629Z,19.20
2017-12-26T06:59:27.963Z,19.77
2017-12-26T07:01:57.070Z,21.33
2017-12-26T07:04:25.506Z,19.83
2017-12-26T07:06:53.835Z,18.77
2017-12-26T07:09:22.160Z,19.50
2017-12-26T07:11:50.521Z,18.77
2017-12-26T07:14:18.859Z,19.00
2017-12-26T07:16:47.185Z,20.40
2017-12-26T07:19:15.544Z,19.10
2017-12-26T07:21:49.511Z,16.50
2017-12-26T07:24:18.640Z,19.07
2017-12-26T07:26:46.956Z,19.00
2017-12-26T07:29:15.312Z,19.77
2017-12-26T07:31:43.668Z,19.20
2017-12-26T07:34:11.993Z,18.40
2017-12-26T07:36:40.351Z,16.90
2017-12-26T07:39:08.678Z,17.30
2017-12-26T07:41:36.996Z,16.97
2017-12-26T07:44:05.358Z,17.80
2017-12-26T07:46:33.676Z,16.43
2017-12-26T07:49:02.016Z,16.50
2017-12-26T07:51:30.443Z,15.57
2017-12-26T07:53:58.790Z,17.10
2017-12-26T07:56:27.116Z,16.50
2017-12-26T07:58:56.241Z,16.90
2017-12-26T08:01:25.094Z,17.60
2017-12-26T08:03:54.201Z,16.70
2017-12-26T08:06:22.573Z,16.47
2017-12-26T08:08:50.927Z,15.47
2017-12-26T08:11:20.057Z,16.97
2017-12-26T08:13:48.396Z,15.60
2017-12-26T08:16:16.758Z,15.97
2017-12-26T08:18:45.147Z,14.50
2017-12-26T08:21:13.494Z,15.67
2017-12-26T08:23:41.836Z,15.60
2017-12-26T08:26:10.186Z,15.07
2017-12-26T08:28:38.507Z,14.93
2017-12-26T08:31:06.871Z,14.97
2017-12-26T08:33:35.250Z,14.93
2017-12-26T08:36:03.580Z,15.43
2017-12-26T08:38:31.933Z,14.33
2017-12-26T08:41:00.282Z,14.37
2017-12-26T08:43:28.634Z,15.00
2017-12-26T08:45:56.977Z,13.70
2017-12-26T08:48:25.373Z,13.03
2017-12-26T08:50:53.756Z,14.93
2017-12-26T08:53:22.104Z,13.87
2017-12-26T08:55:50.484Z,12.70
2017-12-26T08:58:18.851Z,13.23
2017-12-26T09:00:47.317Z,12.80
2017-12-26T09:03:15.713Z,13.83
2017-12-26T09:05:44.074Z,12.77
2017-12-26T09:08:12.434Z,14.00
2017-12-26T09:10:40.839Z,12.80
2017-12-26T09:13:09.184Z,14.13
2017-12-26T09:15:37.591Z,14.53
2017-12-26T09:18:05.957Z,13.63
2017-12-26T09:20:34.386Z,14.30
2017-12-26T09:23:02.808Z,13.53
2017-12-26T09:25:31.332Z,13.93
2017-12-26T09:27:59.677Z,13.80
2017-12-26T09:30:28.074Z,13.03
2017-12-26T09:32:56.502Z,11.87
2017-12-26T09:35:24.849Z,12.67
2017-12-26T09:37:53.245Z,14.20
2017-12-26T09:40:21.608Z,14.27
2017-12-26T09:42:49.951Z,12.83
2017-12-26T09:45:18.277Z,12.87
2017-12-26T09:47:47.458Z,12.73
2017-12-26T09:50:15.781Z,12.47
2017-12-26T09:52:44.875Z,13.10
2017-12-26T09:55:14.028Z,12.30
2017-12-26T09:57:42.364Z,11.90
2017-12-26T10:00:10.704Z,12.27
2017-12-26T10:02:39.050Z,12.00
2017-12-26T10:05:07.381Z,13.00
2017-12-26T10:07:36.555Z,12.47
2017-12-26T10:10:04.908Z,10.80
2017-12-26T10:12:33.261Z,11.20
2017-12-26T10:15:01.657Z,11.00
2017-12-26T10:17:30.015Z,11.60
2017-12-26T10:19:58.349Z,10.77
2017-12-26T10:22:27.499Z,12.90
2017-12-26T10:24:55.851Z,11.37
2017-12-26T10:27:24.946Z,11.10
2017-12-26T10:29:53.336Z,9.73
2017-12-26T10:32:21.667Z,10.03
2017-12-26T10:34:50.028Z,11.90
2017-12-26T10:37:18.389Z,11.00
2017-12-26T10:39:46.708Z,9.77
2017-12-26T10:42:15.073Z,10.50
2017-12-26T10:44:43.417Z,9.70
2017-12-26T10:47:11.755Z,9.60
2017-12-26T10:49:40.880Z,9.17
2017-12-26T10:52:09.232Z,9.70
2017-12-26T10:54:37.585Z,9.90
2017-12-26T10:57:05.980Z,10.93
2017-12-26T10:59:35.274Z,9.00
2017-12-26T11:02:04.397Z,10.63
2017-12-26T11:04:32.768Z,10.03
2017-12-26T11:07:01.867Z,9.60
2017-12-26T11:09:30.289Z,9.40
2017-12-26T11:11:58.651Z,10.00
2017-12-26T11:14:26.977Z,8.43
2017-12-26T11:16:55.430Z,8.23
2017-12-26T11:19:23.797Z,7.83
2017-12-26T11:21:52.120Z,7.87
2017-12-26T11:24:21.237Z,6.43
2017-12-26T11:26:49.548Z,5.50
2017-12-26T11:29:17.865Z,4.83
2017-12-26T11:31:46.204Z,4.80
2017-12-26T11:34:14.588Z,5.73
2017-12-26T11:36:42.975Z,5.00
2017-12-26T11:39:11.347Z,4.00
2017-12-26T11:41:40.464Z,4.40
2017-12-26T11:44:08.783Z,6.07
2017-12-26T11:46:37.185Z,4.00
2017-12-26T11:49:05.508Z,3.77
2017-12-26T11:51:34.613Z,4.10
2017-12-26T11:54:03.054Z,4.00
2017-12-26T11:56:31.416Z,3.70
2017-12-26T11:58:59.793Z,4.23
2017-12-26T12:01:28.156Z,4.20
2017-12-26T12:03:56.536Z,4.37
2017-12-26T12:06:24.951Z,4.40
2017-12-26T12:08:53.320Z,5.10
2017-12-26T12:11:21.693Z,4.60
2017-12-26T12:13:50.028Z,5.87
2017-12-26T12:16:18.401Z,5.83
2017-12-26T12:18:46.738Z,5.40
2017-12-26T12:21:15.080Z,5.93
2017-12-26T12:23:43.428Z,5.70
2017-12-26T12:26:12.512Z,5.50
2017-12-26T12:28:41.595Z,6.60
2017-12-26T12:31:09.949Z,6.60
2017-12-26T12:33:38.284Z,5.77
2017-12-26T12:36:06.609Z,6.73
2017-12-26T12:38:34.959Z,5.80
2017-12-26T12:41:03.325Z,6.57
2017-12-26T12:43:31.680Z,5.50
2017-12-26T12:46:00.779Z,5.57
2017-12-26T12:48:29.148Z,5.60
2017-12-26T12:50:58.284Z,5.03
2017-12-26T12:53:26.600Z,5.90
2017-12-26T12:55:54.915Z,5.70
2017-12-26T12:58:23.256Z,5.50
2017-12-26T13:00:51.628Z,5.43
2017-12-26T13:03:19.953Z,5.57
2017-12-26T13:05:48.269Z,5.07
2017-12-26T13:08:16.640Z,4.57
2017-12-26T13:10:44.949Z,3.53
2017-12-26T13:13:13.270Z,3.90
2017-12-26T13:15:41.651Z,4.40
2017-12-26T13:18:10.730Z,3.30
2017-12-26T13:20:39.059Z,3.53
2017-12-26T13:23:07.426Z,3.30
2017-12-26T13:25:35.748Z,2.23
2017-12-26T13:28:04.848Z,2.63
2017-12-26T13:30:33.205Z,1.83
2017-12-26T13:33:01.517Z,2.10
2017-12-26T13:35:29.873Z,2.10
2017-12-26T13:37:58.984Z,1.10
2017-12-26T13:40:27.316Z,2.03
2017-12-26T13:42:55.685Z,1.30
2017-12-26T13:45:23.996Z,1.20
2017-12-26T13:47:53.079Z,1.50
2017-12-26T13:50:21.422Z,1.40
2017-12-26T13:52:49.741Z,1.23
2017-12-26T13:55:18.836Z,1.33
2017-12-26T13:57:47.959Z,0.90
2017-12-26T14:00:16.298Z,1.27
2017-12-26T14:02:44.633Z,1.97
2017-12-26T14:05:13.010Z,1.47
2017-12-26T14:07:41.339Z,1.30
2017-12-26T14:10:10.438Z,1.70
2017-12-26T14:12:39.564Z,1.70
2017-12-26T14:15:07.892Z,1.50
2017-12-26T14:17:36.238Z,1.20
2017-12-26T14:20:04.601Z,1.63
2017-12-26T14:22:32.956Z,1.30
2017-12-26T14:25:02.044Z,1.33
2017-12-26T14:27:31.144Z,1.20
2017-12-26T14:30:00.231Z,1.47
2017-12-26T14:32:29.354Z,1.23
2017-12-26T14:34:57.688Z,1.27
2017-12-26T14:37:26.032Z,1.10
2017-12-26T14:39:54.367Z,0.60
2017-12-26T14:42:22.695Z,1.00
2017-12-26T14:44:51.172Z,0.87
2017-12-26T14:47:19.593Z,1.10
2017-12-26T14:49:48.730Z,0.93
2017-12-26T14:52:17.079Z,1.00
2017-12-26T14:54:45.415Z,1.03
2017-12-26T14:57:13.761Z,1.30
2017-12-26T14:59:42.119Z,0.70
2017-12-26T15:02:10.517Z,0.90
2017-12-26T15:04:38.849Z,0.80
2017-12-26T15:07:07.176Z,0.83
2017-12-26T15:09:35.538Z,0.90
2017-12-26T15:12:03.860Z,1.00
2017-12-26T15:14:32.205Z,1.00
2017-12-26T15:17:00.562Z,0.80
2017-12-26T15:19:28.882Z,0.93
2017-12-26T15:21:57.206Z,0.80
2017-12-26T15:24:26.319Z,1.10
2017-12-26T15:26:54.635Z,1.03
2017-12-26T15:29:22.968Z,0.93
2017-12-26T15:31:51.300Z,0.90
2017-12-26T15:34:19.647Z,0.70
2017-12-26T15:36:47.996Z,1.17
2017-12-26T15:39:16.327Z,0.90
2017-12-26T15:41:44.696Z,0.90
2017-12-26T15:44:13.029Z,0.70
2017-12-26T15:46:41.340Z,0.70
2017-12-26T15:49:09.676Z,0.80
2017-12-26T15:51:38.766Z,1.03
2017-12-26T15:54:07.843Z,0.83
2017-12-26T15:56:36.188Z,0.80
2017-12-26T15:59:04.524Z,0.90
2017-12-26T16:01:33.611Z,0.70
2017-12-26T16:04:02.704Z,0.80
2017-12-26T16:06:31.791Z,0.90
2017-12-26T16:09:00.961Z,0.83
2017-12-26T16:11:29.323Z,0.83
2017-12-26T16:13:58.487Z,1.30
2017-12-26T16:16:27.591Z,0.80
2017-12-26T16:18:55.964Z,1.20
2017-12-26T16:21:24.310Z,1.00
2017-12-26T16:23:53.404Z,0.70
2017-12-26T16:26:21.786Z,0.60
2017-12-26T16:28:50.877Z,1.00
2017-12-26T16:31:19.960Z,0.60
2017-12-26T16:33:48.316Z,1.00
2017-12-26T16:36:16.653Z,0.90
2017-12-26T16:38:44.972Z,0.60
2017-12-26T16:41:13.348Z,0.87
2017-12-26T16:43:41.724Z,0.80
2017-12-26T16:46:10.068Z,1.00
2017-12-26T16:48:38.441Z,0.93
2017-12-26T16:51:06.764Z,0.90
2017-12-26T16:53:35.103Z,0.57
2017-12-26T16:56:03.473Z,1.07
2017-12-26T16:58:31.797Z,1.33
2017-12-26T17:01:00.125Z,1.00
2017-12-26T17:03:28.461Z,0.90
2017-12-26T17:05:56.783Z,1.17
2017-12-26T17:08:25.162Z,1.40
2017-12-26T17:10:53.494Z,1.10
2017-12-26T17:13:21.823Z,1.70
2017-12-26T17:15:50.183Z,0.80
2017-12-26T17:18:18.512Z,1.03
2017-12-26T17:20:46.826Z,1.30
2017-12-26T17:23:15.944Z,1.13
2017-12-26T17:25:44.273Z,1.23
2017-12-26T17:28:12.587Z,1.20
2017-12-26T17:30:41.684Z,1.20
2017-12-26T17:33:10.031Z,1.00
2017-12-26T17:35:38.380Z,0.90
2017-12-26T17:38:06.727Z,1.43
2017-12-26T17:40:35.052Z,1.40
2017-12-26T17:43:04.172Z,1.80
2017-12-26T17:45:33.306Z,1.60
2017-12-26T17:48:01.650Z,1.90
2017-12-26T17:50:30.744Z,1.47
2017-12-26T17:52:59.862Z,1.43
2017-12-26T17:55:28.189Z,1.17
2017-12-26T17:57:56.521Z,1.77
2017-12-26T18:00:24.855Z,1.50
2017-12-26T18:02:53.190Z,1.20
2017-12-26T18:05:21.496Z,1.33
2017-12-26T18:07:49.850Z,1.80
2017-12-26T18:10:18.188Z,2.07
2017-12-26T18:12:47.280Z,1.60
2017-12-26T18:15:16.410Z,2.37
2017-12-26T18:17:44.751Z,1.30
2017-12-26T18:20:13.836Z,1.70
2017-12-26T18:22:42.978Z,1.67
2017-12-26T18:25:11.296Z,1.50
2017-12-26T18:27:39.619Z,1.27
2017-12-26T18:30:07.968Z,1.37
2017-12-26T18:32:36.291Z,1.27
2017-12-26T18:35:04.599Z,1.20
2017-12-26T18:37:32.959Z,1.40
2017-12-26T18:40:01.319Z,1.30
2017-12-26T18:42:29.699Z,1.20
2017-12-26T18:44:58.039Z,1.20
2017-12-26T18:47:27.148Z,0.80
2017-12-26T18:49:55.463Z,1.20
2017-12-26T18:52:23.830Z,1.40
2017-12-26T18:54:52.181Z,1.27
2017-12-26T18:57:20.507Z,0.90
2017-12-26T18:59:48.825Z,1.07
2017-12-26T19:02:17.983Z,1.07
2017-12-26T19:04:46.301Z,1.20
2017-12-26T19:07:14.619Z,1.07
2017-12-26T19:09:42.964Z,0.90
2017-12-26T19:12:11.274Z,1.47
2017-12-26T19:14:39.809Z,0.70
2017-12-26T19:17:09.108Z,1.40
2017-12-26T19:19:38.203Z,1.00
2017-12-26T19:22:07.290Z,0.90
2017-12-26T19:24:36.424Z,1.30
2017-12-26T19:27:04.737Z,1.10
2017-12-26T19:29:33.117Z,1.00
2017-12-26T19:32:01.457Z,0.90
2017-12-26T19:34:29.780Z,1.47
2017-12-26T19:36:58.139Z,1.00
2017-12-26T19:39:27.236Z,1.40
2017-12-26T19:41:55.570Z,0.97
2017-12-26T19:44:23.904Z,1.57
2017-12-26T19:46:53.011Z,1.30
2017-12-26T19:49:21.352Z,1.73
2017-12-26T19:51:49.686Z,2.03
2017-12-26T19:54:18.778Z,2.37
2017-12-26T19:56:47.924Z,2.07
2017-12-26T19:59:16.262Z,2.27
2017-12-26T20:01:44.627Z,2.47
2017-12-26T20:04:13.707Z,1.93
2017-12-26T20:06:42.093Z,1.90
2017-12-26T20:09:11.172Z,2.03
2017-12-26T20:11:39.512Z,1.67
2017-12-26T20:14:07.865Z,1.00
2017-12-26T20:16:36.195Z,1.60
2017-12-26T20:19:04.536Z,1.13
2017-12-26T20:21:32.859Z,1.27
2017-12-26T20:24:01.178Z,1.10
2017-12-26T20:26:29.488Z,1.53
2017-12-26T20:28:57.828Z,1.10
2017-12-26T20:31:26.167Z,1.30
2017-12-26T20:33:54.627Z,1.10
2017-12-26T20:36:22.994Z,1.43
2017-12-26T20:38:51.348Z,0.97
2017-12-26T20:41:19.722Z,0.90
2017-12-26T20:43:48.072Z,1.03
2017-12-26T20:46:17.184Z,1.50
2017-12-26T20:48:45.577Z,1.27
2017-12-26T20:51:13.940Z,1.40
2017-12-26T20:53:42.271Z,1.50
2017-12-26T20:56:10.654Z,1.47
2017-12-26T20:58:39.025Z,1.70
2017-12-26T21:01:07.384Z,2.13
2017-12-26T21:03:35.760Z,2.10
2017-12-26T21:06:04.117Z,2.23
2017-12-26T21:08:32.520Z,2.30
2017-12-26T21:11:00.918Z,1.83
2017-12-26T21:13:29.324Z,2.00
2017-12-26T21:15:58.478Z,2.10
2017-12-26T21:18:26.861Z,1.57
2017-12-26T21:20:55.314Z,2.17
2017-12-26T21:23:23.699Z,2.20
2017-12-26T21:25:52.053Z,1.80
2017-12-26T21:28:21.186Z,1.77
2017-12-26T21:30:49.586Z,1.83
2017-12-26T21:33:17.939Z,2.27
2017-12-26T21:35:46.295Z,1.50
2017-12-26T21:38:14.660Z,2.07
2017-12-26T21:40:43.043Z,1.83
2017-12-26T21:43:11.391Z,1.90
2017-12-26T21:45:40.549Z,2.50
2017-12-26T21:48:09.073Z,1.70
2017-12-26T21:50:37.463Z,2.20
2017-12-26T21:53:06.642Z,1.70
2017-12-26T21:55:35.752Z,1.97
2017-12-26T21:58:04.906Z,2.10
2017-12-26T22:00:33.251Z,1.30
2017-12-26T22:03:01.574Z,1.90
2017-12-26T22:05:29.971Z,1.43
2017-12-26T22:07:59.145Z,1.63
2017-12-26T22:10:27.480Z,1.30
2017-12-26T22:12:55.815Z,1.83
2017-12-26T22:15:24.968Z,1.80
2017-12-26T22:17:53.318Z,2.23
2017-12-26T22:20:21.657Z,2.30
2017-12-26T22:22:50.040Z,1.80
2017-12-26T22:25:18.386Z,1.87
2017-12-26T22:27:46.741Z,1.83
2017-12-26T22:30:15.145Z,1.50
2017-12-26T22:32:43.508Z,2.03
2017-12-26T22:35:11.896Z,1.70
2017-12-26T22:37:40.273Z,1.80
2017-12-26T22:40:08.641Z,1.63
2017-12-26T22:42:36.995Z,2.13
2017-12-26T22:45:05.344Z,1.97
2017-12-26T22:47:33.747Z,2.17
2017-12-26T22:50:02.176Z,2.70
2017-12-26T22:52:30.664Z,2.07
2017-12-26T22:54:59.088Z,2.00
2017-12-26T22:57:28.201Z,2.20
2017-12-26T22:59:56.625Z,2.40
2017-12-26T23:02:24.989Z,2.27
2017-12-26T23:04:53.348Z,2.03
2017-12-26T23:07:21.727Z,1.90
2017-12-26T23:09:50.113Z,2.13
2017-12-26T23:12:18.614Z,2.10
2017-12-26T23:14:52.411Z,2.20
2017-12-26T23:17:26.602Z,2.33
2017-12-26T23:20:00.475Z,3.17
2017-12-26T23:22:29.641Z,2.20
2017-12-26T23:25:03.640Z,2.30
2017-12-26T23:30:45.715Z,2.67
2017-12-26T23:36:25.084Z,2.50
2017-12-26T23:38:58.923Z,2.20
2017-12-26T23:41:32.876Z,2.33
2017-12-26T23:44:07.527Z,2.50
2017-12-26T23:46:41.517Z,1.80
2017-12-26T23:52:20.793Z,2.60
2017-12-26T23:54:55.517Z,2.33
2017-12-26T23:57:29.435Z,2.20
